createdAt,value
2023-01-28T00:01:40.367Z,9.77
2023-01-28T00:04:07.308Z,19.33
2023-01-28T00:06:34.101Z,12.67
2023-01-28T00:09:00.882Z,9.97
2023-01-28T00:11:27.743Z,9.80
2023-01-28T00:13:54.892Z,8.80
2023-01-28T00:16:27.416Z,9.10
2023-01-28T00:18:54.667Z,9.00
2023-01-28T00:21:21.590Z,10.27
2023-01-28T00:23:52.784Z,10.57
2023-01-28T00:26:19.951Z,11.20
2023-01-28T00:28:48.207Z,9.83
2023-01-28T00:31:18.782Z,10.50
2023-01-28T00:33:46.735Z,10.93
2023-01-28T00:36:14.899Z,10.23
2023-01-28T00:38:42.610Z,10.73
2023-01-28T00:41:15.057Z,11.33
2023-01-28T00:43:43.141Z,11.73
2023-01-28T00:46:11.636Z,13.73
2023-01-28T00:48:40.317Z,13.10
2023-01-28T00:51:08.749Z,13.33
2023-01-28T00:53:36.977Z,11.57
2023-01-28T00:56:04.884Z,12.40
2023-01-28T00:58:32.124Z,11.63
2023-01-28T01:01:08.397Z,12.27
2023-01-28T01:03:35.299Z,13.07
2023-01-28T01:06:02.215Z,14.50
2023-01-28T01:08:35.583Z,17.93
2023-01-28T01:11:03.355Z,16.20
2023-01-28T01:13:31.440Z,13.67
2023-01-28T01:16:08.848Z,13.27
2023-01-28T01:18:36.508Z,13.37
2023-01-28T01:21:15.374Z,11.67
2023-01-28T01:23:42.207Z,13.03
2023-01-28T01:26:09.754Z,10.60
2023-01-28T01:28:37.523Z,8.87
2023-01-28T01:31:20.256Z,9.57
2023-01-28T01:33:49.653Z,8.30
2023-01-28T01:36:19.591Z,8.90
2023-01-28T01:38:46.685Z,8.90
2023-01-28T01:41:25.171Z,9.80
2023-01-28T01:43:58.373Z,7.93
2023-01-28T01:46:50.145Z,7.27
2023-01-28T01:49:21.837Z,6.87
2023-01-28T01:51:53.922Z,8.03
2023-01-28T01:54:21.947Z,8.47
2023-01-28T01:56:51.052Z,7.33
2023-01-28T01:59:25.030Z,6.70
2023-01-28T02:01:53.743Z,6.53
2023-01-28T02:04:28.904Z,6.50
2023-01-28T02:06:56.910Z,9.83
2023-01-28T02:09:36.221Z,7.10
2023-01-28T02:12:24.739Z,7.33
2023-01-28T02:14:56.673Z,6.60
2023-01-28T02:17:24.545Z,6.73
2023-01-28T02:20:09.981Z,5.80
2023-01-28T02:22:54.753Z,6.80
2023-01-28T02:25:41.276Z,7.00
2023-01-28T02:28:15.099Z,6.60
2023-01-28T02:31:04.803Z,6.10
2023-01-28T02:33:35.592Z,5.40
2023-01-28T02:36:32.577Z,6.17
2023-01-28T02:39:07.364Z,6.33
2023-01-28T02:41:57.067Z,7.20
2023-01-28T02:44:24.587Z,6.60
2023-01-28T02:47:12.537Z,7.70
2023-01-28T02:49:50.049Z,7.77
2023-01-28T02:52:45.733Z,9.63
2023-01-28T02:55:24.770Z,9.13
2023-01-28T02:58:06.545Z,11.37
2023-01-28T03:00:59.589Z,9.30
2023-01-28T03:03:26.276Z,8.40
2023-01-28T03:06:06.797Z,11.40
2023-01-28T03:09:14.897Z,9.30
2023-01-28T03:12:07.188Z,7.97
2023-01-28T03:14:54.535Z,7.77
2023-01-28T03:17:59.240Z,9.17
2023-01-28T03:20:47.436Z,7.17
2023-01-28T03:23:40.367Z,6.67
2023-01-28T03:26:28.951Z,7.27
2023-01-28T03:29:18.050Z,7.43
2023-01-28T03:32:03.561Z,9.87
2023-01-28T03:34:51.901Z,8.30
2023-01-28T03:37:18.836Z,9.07
2023-01-28T03:39:50.097Z,10.50
2023-01-28T03:42:18.786Z,10.07
2023-01-28T03:44:56.356Z,9.60
2023-01-28T03:47:30.105Z,9.40
2023-01-28T03:49:59.896Z,8.20
2023-01-28T03:52:35.077Z,11.53
2023-01-28T03:55:03.407Z,8.13
2023-01-28T03:57:31.605Z,8.83
2023-01-28T03:59:58.513Z,10.73
2023-01-28T04:02:27.231Z,9.37
2023-01-28T04:04:54.163Z,9.40
2023-01-28T04:07:21.083Z,10.07
2023-01-28T04:09:48.037Z,9.60
2023-01-28T04:12:15.113Z,12.73
2023-01-28T04:14:41.932Z,9.27
2023-01-28T04:17:10.735Z,12.93
2023-01-28T04:19:37.895Z,11.53
2023-01-28T04:22:11.134Z,12.77
2023-01-28T04:24:37.912Z,17.80
2023-01-28T04:27:04.880Z,13.17
2023-01-28T04:29:31.782Z,14.97
2023-01-28T04:31:58.645Z,14.40
2023-01-28T04:34:25.419Z,11.53
2023-01-28T04:36:52.302Z,12.80
2023-01-28T04:39:19.085Z,14.20
2023-01-28T04:41:45.963Z,11.03
2023-01-28T04:44:13.810Z,17.13
2023-01-28T04:46:40.951Z,14.20
2023-01-28T04:49:07.888Z,12.53
2023-01-28T04:51:34.674Z,14.40
2023-01-28T04:54:01.552Z,20.33
2023-01-28T04:56:28.421Z,13.43
2023-01-28T04:58:55.297Z,14.10
2023-01-28T05:01:22.248Z,14.77
2023-01-28T05:03:49.078Z,14.90
2023-01-28T05:06:16.019Z,16.90
2023-01-28T05:08:42.856Z,15.80
2023-01-28T05:11:09.654Z,14.43
2023-01-28T05:13:36.539Z,14.70
2023-01-28T05:16:03.506Z,14.57
2023-01-28T05:18:30.276Z,17.67
2023-01-28T05:20:57.691Z,15.27
2023-01-28T05:23:25.135Z,20.17
2023-01-28T05:25:52.170Z,15.10
2023-01-28T05:28:18.977Z,13.60
2023-01-28T05:30:45.839Z,15.77
2023-01-28T05:33:12.672Z,14.63
2023-01-28T05:35:39.457Z,17.60
2023-01-28T05:38:06.486Z,16.87
2023-01-28T05:40:33.344Z,18.30
2023-01-28T05:43:00.337Z,16.57
2023-01-28T05:45:27.371Z,16.17
2023-01-28T05:47:54.245Z,16.63
2023-01-28T05:50:21.113Z,15.80
2023-01-28T05:52:47.938Z,15.47
2023-01-28T05:55:15.032Z,14.90
2023-01-28T05:57:41.944Z,16.67
2023-01-28T06:00:09.530Z,16.10
2023-01-28T06:02:36.390Z,15.30
2023-01-28T06:05:03.325Z,15.77
2023-01-28T06:07:30.166Z,17.07
2023-01-28T06:09:57.057Z,17.60
2023-01-28T06:12:23.996Z,15.13
2023-01-28T06:14:50.761Z,15.33
2023-01-28T06:17:17.857Z,18.47
2023-01-28T06:19:44.770Z,18.27
2023-01-28T06:22:11.912Z,16.10
2023-01-28T06:24:38.830Z,18.70
2023-01-28T06:27:05.863Z,15.70
2023-01-28T06:29:33.216Z,17.27
2023-01-28T06:32:00.073Z,17.27
2023-01-28T06:34:26.886Z,20.40
2023-01-28T06:36:54.197Z,17.67
2023-01-28T06:39:22.428Z,16.83
2023-01-28T06:41:50.211Z,17.80
2023-01-28T06:44:17.262Z,18.67
2023-01-28T06:46:44.286Z,20.27
2023-01-28T06:49:11.584Z,17.93
2023-01-28T06:51:38.377Z,17.20
2023-01-28T06:54:05.460Z,17.40
2023-01-28T06:56:32.744Z,19.50
2023-01-28T06:58:59.566Z,16.83
2023-01-28T07:01:27.190Z,20.17
2023-01-28T07:03:54.271Z,18.33
2023-01-28T07:06:21.117Z,18.17
2023-01-28T07:08:48.295Z,17.30
2023-01-28T07:11:15.892Z,16.23
2023-01-28T07:13:43.531Z,20.00
2023-01-28T07:16:11.626Z,18.67
2023-01-28T07:18:38.388Z,17.97
2023-01-28T07:21:05.445Z,18.97
2023-01-28T07:23:32.263Z,19.83
2023-01-28T07:26:03.257Z,16.53
2023-01-28T07:28:30.136Z,16.43
2023-01-28T07:30:57.281Z,16.70
2023-01-28T07:33:24.155Z,16.17
2023-01-28T07:35:50.925Z,17.27
2023-01-28T07:38:17.829Z,17.80
2023-01-28T07:40:45.354Z,16.80
2023-01-28T07:43:12.404Z,19.57
2023-01-28T07:45:39.704Z,19.77
2023-01-28T07:48:08.048Z,16.90
2023-01-28T07:50:37.147Z,17.50
2023-01-28T07:53:10.759Z,16.53
2023-01-28T07:55:38.483Z,14.57
2023-01-28T07:58:07.213Z,18.17
2023-01-28T08:00:36.156Z,18.87
2023-01-28T08:03:05.908Z,16.53
2023-01-28T08:05:46.313Z,18.87
2023-01-28T08:08:13.997Z,20.30
2023-01-28T08:10:41.727Z,23.77
2023-01-28T08:13:10.691Z,19.53
2023-01-28T08:15:38.833Z,19.83
2023-01-28T08:18:07.239Z,20.57
2023-01-28T08:20:34.233Z,23.93
2023-01-28T08:23:07.608Z,22.13
2023-01-28T08:25:35.724Z,23.33
2023-01-28T08:28:03.669Z,19.10
2023-01-28T08:30:31.019Z,21.07
2023-01-28T08:32:59.011Z,22.30
2023-01-28T08:35:26.914Z,19.93
2023-01-28T08:37:54.830Z,22.57
2023-01-28T08:40:22.154Z,21.53
2023-01-28T08:42:50.343Z,34.93
2023-01-28T08:45:18.251Z,23.60
2023-01-28T08:47:55.644Z,20.13
2023-01-28T08:50:24.379Z,19.23
2023-01-28T08:52:56.732Z,21.50
2023-01-28T08:55:24.743Z,19.27
2023-01-28T08:57:52.126Z,20.33
2023-01-28T09:00:19.866Z,20.87
2023-01-28T09:02:47.222Z,21.83
2023-01-28T09:05:15.116Z,20.30
2023-01-28T09:07:42.349Z,21.80
2023-01-28T09:10:09.875Z,18.93
2023-01-28T09:12:37.139Z,18.93
2023-01-28T09:15:05.131Z,25.33
2023-01-28T09:17:31.970Z,19.47
2023-01-28T09:19:59.214Z,26.50
2023-01-28T09:22:26.131Z,25.00
2023-01-28T09:24:52.977Z,20.73
2023-01-28T09:27:19.744Z,22.70
2023-01-28T09:29:46.611Z,19.67
2023-01-28T09:32:13.437Z,23.47
2023-01-28T09:34:40.247Z,20.87
2023-01-28T09:37:07.079Z,20.37
2023-01-28T09:39:33.921Z,22.70
2023-01-28T09:42:22.229Z,19.83
2023-01-28T09:44:57.719Z,19.40
2023-01-28T09:47:26.881Z,18.73
2023-01-28T09:49:57.209Z,19.93
2023-01-28T09:52:26.596Z,19.13
2023-01-28T09:55:17.107Z,18.57
2023-01-28T09:57:53.388Z,19.37
2023-01-28T10:00:24.591Z,18.37
2023-01-28T10:03:30.059Z,19.03
2023-01-28T10:06:18.275Z,19.43
2023-01-28T10:09:09.255Z,15.97
2023-01-28T10:12:07.939Z,17.10
2023-01-28T10:15:02.362Z,22.03
2023-01-28T10:17:45.205Z,17.93
2023-01-28T10:20:12.021Z,18.23
2023-01-28T10:23:06.795Z,22.07
2023-01-28T10:25:34.797Z,17.73
2023-01-28T10:28:02.313Z,18.33
2023-01-28T10:30:32.878Z,15.93
2023-01-28T10:33:09.983Z,17.50
2023-01-28T10:35:41.903Z,15.77
2023-01-28T10:38:14.442Z,17.20
2023-01-28T10:40:42.390Z,15.30
2023-01-28T10:43:09.692Z,18.03
2023-01-28T10:45:59.677Z,17.50
2023-01-28T10:48:43.041Z,17.43
2023-01-28T10:51:09.841Z,23.47
2023-01-28T10:53:40.984Z,18.00
2023-01-28T10:56:17.626Z,15.97
2023-01-28T10:58:58.338Z,18.57
2023-01-28T11:01:25.748Z,16.13
2023-01-28T11:03:58.036Z,18.03
2023-01-28T11:06:28.017Z,16.77
2023-01-28T11:08:55.755Z,17.67
2023-01-28T11:11:29.853Z,15.20
2023-01-28T11:13:58.647Z,30.93
2023-01-28T11:16:27.019Z,16.80
2023-01-28T11:18:59.743Z,16.30
2023-01-28T11:21:29.859Z,18.83
2023-01-28T11:24:00.741Z,15.03
2023-01-28T11:26:32.241Z,17.57
2023-01-28T11:28:59.336Z,16.70
2023-01-28T11:31:27.543Z,18.23
2023-01-28T11:34:04.952Z,17.50
2023-01-28T11:36:34.684Z,17.63
2023-01-28T11:39:25.839Z,18.53
2023-01-28T11:41:54.053Z,18.07
2023-01-28T11:44:28.037Z,17.43
2023-01-28T11:47:05.915Z,21.70
2023-01-28T11:50:11.872Z,19.07
2023-01-28T11:53:26.205Z,21.17
2023-01-28T11:55:58.793Z,19.27
2023-01-28T11:58:34.138Z,17.73
2023-01-28T12:01:18.628Z,21.23
2023-01-28T12:04:18.835Z,17.73
2023-01-28T12:07:04.592Z,25.13
2023-01-28T12:09:54.766Z,22.23
2023-01-28T12:12:50.911Z,22.63
2023-01-28T12:15:57.568Z,21.80
2023-01-28T12:18:51.870Z,18.43
2023-01-28T12:21:21.446Z,19.60
2023-01-28T12:23:59.895Z,19.73
2023-01-28T12:26:49.670Z,18.23
2023-01-28T12:29:41.679Z,18.33
2023-01-28T12:32:31.625Z,21.73
2023-01-28T12:35:32.695Z,19.23
2023-01-28T12:38:03.112Z,20.93
2023-01-28T12:40:54.601Z,19.23
2023-01-28T12:43:44.825Z,20.73
2023-01-28T12:46:29.502Z,18.80
2023-01-28T12:49:00.819Z,20.77
2023-01-28T12:51:44.518Z,19.60
2023-01-28T12:54:20.107Z,17.97
2023-01-28T12:56:52.722Z,21.13
2023-01-28T12:59:22.915Z,20.83
2023-01-28T13:02:09.114Z,17.77
2023-01-28T13:04:55.158Z,17.60
2023-01-28T13:07:26.411Z,20.30
2023-01-28T13:09:55.411Z,25.70
2023-01-28T13:12:23.367Z,22.67
2023-01-28T13:14:53.799Z,23.03
2023-01-28T13:17:26.622Z,22.47
2023-01-28T13:19:53.745Z,26.87
2023-01-28T13:22:30.050Z,21.60
2023-01-28T13:24:57.650Z,20.40
2023-01-28T13:27:26.323Z,20.03
2023-01-28T13:30:23.139Z,20.87
2023-01-28T13:32:56.540Z,21.07
2023-01-28T13:35:30.413Z,21.87
2023-01-28T13:37:57.792Z,23.27
2023-01-28T13:40:27.213Z,19.77
2023-01-28T13:43:02.808Z,21.67
2023-01-28T13:45:30.115Z,20.40
2023-01-28T13:48:16.150Z,21.70
2023-01-28T13:50:44.007Z,21.67
2023-01-28T13:53:24.547Z,20.50
2023-01-28T13:55:57.090Z,20.77
2023-01-28T13:58:50.526Z,21.73
2023-01-28T14:01:23.538Z,21.92
2023-01-28T14:04:02.829Z,20.25
2023-01-28T14:06:39.806Z,21.95
2023-01-28T14:09:24.080Z,20.63
2023-01-28T14:11:57.489Z,21.58
2023-01-28T14:14:27.393Z,23.23
2023-01-28T14:17:14.857Z,21.67
2023-01-28T14:19:42.641Z,21.77
2023-01-28T14:22:10.739Z,21.97
2023-01-28T14:24:38.840Z,23.00
2023-01-28T14:27:12.647Z,21.57
2023-01-28T14:29:39.784Z,24.07
2023-01-28T14:32:12.185Z,23.77
2023-01-28T14:34:39.359Z,24.90
2023-01-28T14:37:10.314Z,24.97
2023-01-28T14:39:58.465Z,23.27
2023-01-28T14:42:28.437Z,22.73
2023-01-28T14:45:34.198Z,21.13
2023-01-28T14:48:16.144Z,20.83
2023-01-28T14:51:09.550Z,22.53
2023-01-28T14:53:36.755Z,20.63
2023-01-28T14:56:22.702Z,26.33
2023-01-28T14:58:52.746Z,21.00
2023-01-28T15:01:30.147Z,23.73
2023-01-28T15:03:57.707Z,23.07
2023-01-28T15:06:25.932Z,20.97
2023-01-28T15:08:53.448Z,25.30
2023-01-28T15:11:22.693Z,23.70
2023-01-28T15:13:51.774Z,23.07
2023-01-28T15:16:21.139Z,23.07
2023-01-28T15:18:50.910Z,24.37
2023-01-28T15:21:22.812Z,29.10
2023-01-28T15:23:54.636Z,22.70
2023-01-28T15:26:42.077Z,30.50
2023-01-28T15:29:22.606Z,25.60
2023-01-28T15:31:51.287Z,24.67
2023-01-28T15:34:20.489Z,28.27
2023-01-28T15:36:50.810Z,24.87
2023-01-28T15:39:19.612Z,27.63
2023-01-28T15:41:49.596Z,32.63
2023-01-28T15:44:23.217Z,36.67
2023-01-28T15:46:50.462Z,30.50
2023-01-28T15:49:18.701Z,32.37
2023-01-28T15:51:51.196Z,30.87
2023-01-28T15:54:18.721Z,29.00
2023-01-28T15:56:45.947Z,37.07
2023-01-28T15:59:19.319Z,33.87
2023-01-28T16:01:46.490Z,38.03
2023-01-28T16:04:27.613Z,40.07
2023-01-28T16:06:55.766Z,39.77
2023-01-28T16:09:30.913Z,38.73
2023-01-28T16:12:05.394Z,40.27
2023-01-28T16:14:36.842Z,41.50
2023-01-28T16:17:04.105Z,44.07
2023-01-28T16:19:34.038Z,38.43
2023-01-28T16:22:02.123Z,43.80
2023-01-28T16:24:32.294Z,42.63
2023-01-28T16:27:03.658Z,43.53
2023-01-28T16:29:32.179Z,40.90
2023-01-28T16:32:00.130Z,41.13
2023-01-28T16:34:28.096Z,43.73
2023-01-28T16:37:02.237Z,39.33
2023-01-28T16:39:30.365Z,40.43
2023-01-28T16:41:57.657Z,38.80
2023-01-28T16:44:24.970Z,37.30
2023-01-28T16:46:52.232Z,39.60
2023-01-28T16:49:19.507Z,39.73
2023-01-28T16:51:46.711Z,36.93
2023-01-28T16:54:15.348Z,36.60
2023-01-28T16:56:45.994Z,38.03
2023-01-28T16:59:15.314Z,41.90
2023-01-28T17:01:42.882Z,44.33
2023-01-28T17:04:12.250Z,40.13
2023-01-28T17:06:43.008Z,38.10
2023-01-28T17:09:11.710Z,36.07
2023-01-28T17:11:40.725Z,41.20
2023-01-28T17:14:08.456Z,37.50
2023-01-28T17:16:35.761Z,41.33
2023-01-28T17:19:03.366Z,37.20
2023-01-28T17:21:30.575Z,38.40
2023-01-28T17:23:59.305Z,36.53
2023-01-28T17:26:28.589Z,40.00
2023-01-28T17:28:56.342Z,43.00
2023-01-28T17:31:23.759Z,41.27
2023-01-28T17:33:54.404Z,38.67
2023-01-28T17:36:21.658Z,36.00
2023-01-28T17:38:48.931Z,39.80
2023-01-28T17:41:17.668Z,37.63
2023-01-28T17:43:44.952Z,41.90
2023-01-28T17:46:16.107Z,40.13
2023-01-28T17:48:46.505Z,37.63
2023-01-28T17:51:17.024Z,40.03
2023-01-28T17:53:51.179Z,42.83
2023-01-28T17:56:22.945Z,40.60
2023-01-28T17:58:54.127Z,38.17
2023-01-28T18:01:22.307Z,50.13
2023-01-28T18:03:49.756Z,44.67
2023-01-28T18:06:17.115Z,42.50
2023-01-28T18:08:44.523Z,42.20
2023-01-28T18:11:12.855Z,37.07
2023-01-28T18:13:42.403Z,43.93
2023-01-28T18:16:15.825Z,40.47
2023-01-28T18:18:43.414Z,40.43
2023-01-28T18:21:31.670Z,39.17
2023-01-28T18:24:01.961Z,42.33
2023-01-28T18:26:29.481Z,47.33
2023-01-28T18:28:59.053Z,44.87
2023-01-28T18:31:26.415Z,39.80
2023-01-28T18:33:53.938Z,42.03
2023-01-28T18:36:21.218Z,42.33
2023-01-28T18:38:48.912Z,45.80
2023-01-28T18:41:16.181Z,45.33
2023-01-28T18:43:43.520Z,52.83
2023-01-28T18:46:12.036Z,51.03
2023-01-28T18:48:38.908Z,52.50
2023-01-28T18:51:10.595Z,48.77
2023-01-28T18:53:42.152Z,45.50
2023-01-28T18:56:09.704Z,39.67
2023-01-28T18:58:36.785Z,48.37
2023-01-28T19:01:10.298Z,46.13
2023-01-28T19:03:38.136Z,40.50
2023-01-28T19:06:09.158Z,42.90
2023-01-28T19:08:36.415Z,43.23
2023-01-28T19:11:03.457Z,39.10
2023-01-28T19:13:30.385Z,43.40
2023-01-28T19:15:57.159Z,45.03
2023-01-28T19:18:24.200Z,45.33
2023-01-28T19:20:51.093Z,51.03
2023-01-28T19:23:18.421Z,52.40
2023-01-28T19:25:45.206Z,46.50
2023-01-28T19:28:12.088Z,46.83
2023-01-28T19:30:38.962Z,53.53
2023-01-28T19:33:08.529Z,58.23
2023-01-28T19:35:35.933Z,52.77
2023-01-28T19:38:03.728Z,47.07
2023-01-28T19:40:31.528Z,50.73
2023-01-28T19:42:59.087Z,55.10
2023-01-28T19:45:26.343Z,54.93
2023-01-28T19:47:53.657Z,53.50
2023-01-28T19:50:20.840Z,52.50
2023-01-28T19:52:48.103Z,49.47
2023-01-28T19:55:15.677Z,45.73
2023-01-28T19:57:44.754Z,52.13
2023-01-28T20:00:12.350Z,55.77
2023-01-28T20:02:39.146Z,67.10
2023-01-28T20:05:06.108Z,74.97
2023-01-28T20:07:32.848Z,53.50
2023-01-28T20:09:59.667Z,57.37
2023-01-28T20:12:27.334Z,50.63
2023-01-28T20:14:54.144Z,55.83
2023-01-28T20:17:21.782Z,48.47
2023-01-28T20:19:48.946Z,56.57
2023-01-28T20:22:15.958Z,58.50
2023-01-28T20:24:42.740Z,59.30
2023-01-28T20:27:09.561Z,51.97
2023-01-28T20:29:36.406Z,54.70
2023-01-28T20:32:15.758Z,55.43
2023-01-28T20:34:44.627Z,57.53
2023-01-28T20:37:11.438Z,63.57
2023-01-28T20:39:38.308Z,53.57
2023-01-28T20:42:06.295Z,57.27
2023-01-28T20:44:33.161Z,53.37
2023-01-28T20:46:59.978Z,53.87
2023-01-28T20:49:28.181Z,60.73
2023-01-28T20:51:55.809Z,54.67
2023-01-28T20:54:22.712Z,58.07
2023-01-28T20:56:49.759Z,54.80
2023-01-28T20:59:16.688Z,58.77
2023-01-28T21:01:43.631Z,65.33
2023-01-28T21:04:10.841Z,57.83
2023-01-28T21:06:38.154Z,57.03
2023-01-28T21:09:05.869Z,58.87
2023-01-28T21:11:32.735Z,58.03
2023-01-28T21:13:59.587Z,56.87
2023-01-28T21:16:26.983Z,61.77
2023-01-28T21:18:53.792Z,54.33
2023-01-28T21:21:26.452Z,55.67
2023-01-28T21:23:59.530Z,59.60
2023-01-28T21:26:26.943Z,60.23
2023-01-28T21:28:53.952Z,63.60
2023-01-28T21:31:23.798Z,61.93
2023-01-28T21:33:52.681Z,61.17
2023-01-28T21:36:20.189Z,56.00
2023-01-28T21:38:57.323Z,66.20
2023-01-28T21:41:24.938Z,53.50
2023-01-28T21:43:53.772Z,58.67
2023-01-28T21:46:25.288Z,58.73
2023-01-28T21:49:02.930Z,59.87
2023-01-28T21:51:36.394Z,62.43
2023-01-28T21:54:04.148Z,68.13
2023-01-28T21:56:31.454Z,69.33
2023-01-28T21:59:17.412Z,66.20
2023-01-28T22:01:45.003Z,60.07
2023-01-28T22:04:13.693Z,58.00
2023-01-28T22:06:42.221Z,73.10
2023-01-28T22:09:13.980Z,63.40
2023-01-28T22:11:41.997Z,70.07
2023-01-28T22:14:09.225Z,60.20
2023-01-28T22:16:36.502Z,62.77
2023-01-28T22:19:04.051Z,62.50
2023-01-28T22:21:31.346Z,59.67
2023-01-28T22:23:58.550Z,61.77
2023-01-28T22:26:27.685Z,63.60
2023-01-28T22:28:54.826Z,64.37
2023-01-28T22:31:22.218Z,62.03
2023-01-28T22:33:49.460Z,60.90
2023-01-28T22:36:16.921Z,64.40
2023-01-28T22:38:45.051Z,62.20
2023-01-28T22:41:13.739Z,62.63
2023-01-28T22:43:41.840Z,70.23
2023-01-28T22:46:10.295Z,63.03
2023-01-28T22:48:38.243Z,64.47
2023-01-28T22:51:09.804Z,68.20
2023-01-28T22:53:36.986Z,60.77
2023-01-28T22:56:04.227Z,63.57
2023-01-28T22:58:32.034Z,59.00
2023-01-28T23:01:00.245Z,54.17
2023-01-28T23:03:27.412Z,60.33
2023-01-28T23:05:58.618Z,60.83
2023-01-28T23:08:25.963Z,62.13
2023-01-28T23:10:53.110Z,67.57
2023-01-28T23:13:21.715Z,66.70
2023-01-28T23:16:08.337Z,62.50
2023-01-28T23:18:39.052Z,61.40
2023-01-28T23:21:33.724Z,60.63
2023-01-28T23:24:19.854Z,63.23
2023-01-28T23:26:47.761Z,60.30
2023-01-28T23:29:14.945Z,60.07
2023-01-28T23:31:43.473Z,58.50
2023-01-28T23:34:10.838Z,56.27
2023-01-28T23:36:37.941Z,57.63
2023-01-28T23:39:05.133Z,60.63
2023-01-28T23:41:32.291Z,60.87
2023-01-28T23:43:59.494Z,60.57
2023-01-28T23:46:38.636Z,60.10
2023-01-28T23:49:06.799Z,58.97
2023-01-28T23:51:33.975Z,61.90
2023-01-28T23:54:01.227Z,60.97
2023-01-28T23:56:28.546Z,62.97
2023-01-28T23:58:56.970Z,58.30
